sensor_id;sensor_type;location;lat;lon;timestamp;pressure;altitude;pressure_sealevel;temperature;humidity
16255;BME280;8235;52.198;9.904;2024-01-10T00:02:21;102617.22;;;-7.67;84.27
16255;BME280;8235;52.198;9.904;2024-01-10T00:04:47;102618.91;;;-7.68;84.80
16255;BME280;8235;52.198;9.904;2024-01-10T00:07:13;102613.75;;;-7.68;84.25
16255;BME280;8235;52.198;9.904;2024-01-10T00:09:41;102613.81;;;-7.66;85.00
16255;BME280;8235;52.198;9.904;2024-01-10T00:12:08;102605.38;;;-7.62;84.54
16255;BME280;8235;52.198;9.904;2024-01-10T00:14:34;102597.66;;;-7.61;84.27
16255;BME280;8235;52.198;9.904;2024-01-10T00:17:01;102590.66;;;-7.63;84.70
16255;BME280;8235;52.198;9.904;2024-01-10T00:19:28;102585.47;;;-7.63;84.84
16255;BME280;8235;52.198;9.904;2024-01-10T00:21:54;102580.25;;;-7.65;84.10
16255;BME280;8235;52.198;9.904;2024-01-10T00:24:20;102587.13;;;-7.65;84.79
16255;BME280;8235;52.198;9.904;2024-01-10T00:26:48;102577.47;;;-7.70;84.84
16255;BME280;8235;52.198;9.904;2024-01-10T00:29:15;102586.06;;;-7.71;84.65
16255;BME280;8235;52.198;9.904;2024-01-10T00:31:41;102578.31;;;-7.71;85.14
16255;BME280;8235;52.198;9.904;2024-01-10T00:34:08;102574.84;;;-7.71;84.55
16255;BME280;8235;52.198;9.904;2024-01-10T00:36:34;102573.94;;;-7.72;84.97
16255;BME280;8235;52.198;9.904;2024-01-10T00:39:01;102577.47;;;-7.70;84.91
16255;BME280;8235;52.198;9.904;2024-01-10T00:41:27;102578.31;;;-7.71;84.96
16255;BME280;8235;52.198;9.904;2024-01-10T00:43:55;102578.31;;;-7.71;84.75
16255;BME280;8235;52.198;9.904;2024-01-10T00:46:22;102574.00;;;-7.70;85.00
16255;BME280;8235;52.198;9.904;2024-01-10T00:48:48;102568.72;;;-7.73;85.21
16255;BME280;8235;52.198;9.904;2024-01-10T00:51:15;102579.88;;;-7.74;85.17
16255;BME280;8235;52.198;9.904;2024-01-10T00:53:41;102591.94;;;-7.75;85.19
16255;BME280;8235;52.198;9.904;2024-01-10T00:56:08;102576.28;;;-7.78;85.81
16255;BME280;8235;52.198;9.904;2024-01-10T00:58:35;102577.84;;;-7.81;84.74
16255;BME280;8235;52.198;9.904;2024-01-10T01:01:03;102582.06;;;-7.83;84.99
16255;BME280;8235;52.198;9.904;2024-01-10T01:03:29;102583.75;;;-7.84;85.53
16255;BME280;8235;52.198;9.904;2024-01-10T01:05:56;102576.81;;;-7.85;85.08
16255;BME280;8235;52.198;9.904;2024-01-10T01:08:22;102576.81;;;-7.85;85.90
16255;BME280;8235;52.198;9.904;2024-01-10T01:10:49;102584.44;;;-7.88;85.57
16255;BME280;8235;52.198;9.904;2024-01-10T01:13:15;102576.75;;;-7.86;85.73
16255;BME280;8235;52.198;9.904;2024-01-10T01:15:43;102580.16;;;-7.87;85.74
16255;BME280;8235;52.198;9.904;2024-01-10T01:18:11;102585.34;;;-7.87;85.92
16255;BME280;8235;52.198;9.904;2024-01-10T01:20:38;102589.69;;;-7.86;85.89
16255;BME280;8235;52.198;9.904;2024-01-10T01:23:04;102581.03;;;-7.87;85.79
16255;BME280;8235;52.198;9.904;2024-01-10T01:25:31;102590.47;;;-7.89;86.03
16255;BME280;8235;52.198;9.904;2024-01-10T01:27:57;102589.59;;;-7.89;86.07
16255;BME280;8235;52.198;9.904;2024-01-10T01:30:24;102590.41;;;-7.90;86.80
16255;BME280;8235;52.198;9.904;2024-01-10T01:32:50;102585.28;;;-7.89;86.10
16255;BME280;8235;52.198;9.904;2024-01-10T01:35:19;102593.97;;;-7.87;86.91
16255;BME280;8235;52.198;9.904;2024-01-10T01:37:47;102593.72;;;-7.93;86.64
16255;BME280;8235;52.198;9.904;2024-01-10T01:40:15;102595.44;;;-7.93;86.54
16255;BME280;8235;52.198;9.904;2024-01-10T01:42:41;102589.38;;;-7.94;86.92
16255;BME280;8235;52.198;9.904;2024-01-10T01:45:09;102585.91;;;-7.94;87.18
16255;BME280;8235;52.198;9.904;2024-01-10T01:47:37;102586.78;;;-7.94;86.57
16255;BME280;8235;52.198;9.904;2024-01-10T01:50:04;102589.38;;;-7.94;87.01
16255;BME280;8235;52.198;9.904;2024-01-10T01:52:33;102583.25;;;-7.96;87.14
16255;BME280;8235;52.198;9.904;2024-01-10T01:55:00;102579.84;;;-7.95;86.57
16255;BME280;8235;52.198;9.904;2024-01-10T01:57:27;102580.66;;;-7.96;86.89
16255;BME280;8235;52.198;9.904;2024-01-10T01:59:53;102577.25;;;-7.95;86.54
16255;BME280;8235;52.198;9.904;2024-01-10T02:02:21;102575.50;;;-7.96;86.77
16255;BME280;8235;52.198;9.904;2024-01-10T02:04:48;102572.84;;;-7.97;86.65
16255;BME280;8235;52.198;9.904;2024-01-10T02:07:14;102570.19;;;-7.99;87.27
16255;BME280;8235;52.198;9.904;2024-01-10T02:09:42;102574.41;;;-8.01;87.66
16255;BME280;8235;52.198;9.904;2024-01-10T02:12:09;102581.22;;;-8.03;87.31
16255;BME280;8235;52.198;9.904;2024-01-10T02:14:35;102572.56;;;-8.03;87.52
16255;BME280;8235;52.198;9.904;2024-01-10T02:17:02;102572.50;;;-8.05;87.72
16255;BME280;8235;52.198;9.904;2024-01-10T02:19:29;102567.34;;;-8.05;87.40
16255;BME280;8235;52.198;9.904;2024-01-10T02:21:57;102562.13;;;-8.07;87.72
16255;BME280;8235;52.198;9.904;2024-01-10T02:24:24;102559.47;;;-8.08;87.39
16255;BME280;8235;52.198;9.904;2024-01-10T02:26:51;102549.94;;;-8.09;87.89
16255;BME280;8235;52.198;9.904;2024-01-10T02:29:18;102554.97;;;-8.12;87.90
16255;BME280;8235;52.198;9.904;2024-01-10T02:31:44;102561.03;;;-8.12;88.33
16255;BME280;8235;52.198;9.904;2024-01-10T02:34:11;102554.97;;;-8.12;87.72
16255;BME280;8235;52.198;9.904;2024-01-10T02:36:37;102547.16;;;-8.14;87.94
16255;BME280;8235;52.198;9.904;2024-01-10T02:39:04;102543.56;;;-8.17;88.33
16255;BME280;8235;52.198;9.904;2024-01-10T02:41:30;102541.72;;;-8.20;88.52
16255;BME280;8235;52.198;9.904;2024-01-10T02:43:58;102542.59;;;-8.19;88.25
16255;BME280;8235;52.198;9.904;2024-01-10T02:46:25;102550.28;;;-8.21;88.41
16255;BME280;8235;52.198;9.904;2024-01-10T02:48:53;102554.50;;;-8.23;88.87
16255;BME280;8235;52.198;9.904;2024-01-10T02:51:21;102554.47;;;-8.24;89.16
16255;BME280;8235;52.198;9.904;2024-01-10T02:53:47;102547.53;;;-8.25;89.06
16255;BME280;8235;52.198;9.904;2024-01-10T02:56:14;102550.22;;;-8.22;89.02
16255;BME280;8235;52.198;9.904;2024-01-10T02:58:40;102535.53;;;-8.23;88.86
16255;BME280;8235;52.198;9.904;2024-01-10T03:01:08;102533.66;;;-8.27;88.95
16255;BME280;8235;52.198;9.904;2024-01-10T03:03:35;102535.28;;;-8.29;89.65
16255;BME280;8235;52.198;9.904;2024-01-10T03:06:01;102537.94;;;-8.28;89.16
16255;BME280;8235;52.198;9.904;2024-01-10T03:08:28;102533.59;;;-8.29;89.48
16255;BME280;8235;52.198;9.904;2024-01-10T03:10:54;102535.28;;;-8.29;89.18
16255;BME280;8235;52.198;9.904;2024-01-10T03:13:20;102534.47;;;-8.28;89.67
16255;BME280;8235;52.198;9.904;2024-01-10T03:15:47;102537.78;;;-8.31;89.83
16255;BME280;8235;52.198;9.904;2024-01-10T03:18:15;102538.88;;;-8.26;89.58
16255;BME280;8235;52.198;9.904;2024-01-10T03:20:42;102538.97;;;-8.24;89.77
16255;BME280;8235;52.198;9.904;2024-01-10T03:23:08;102538.06;;;-8.25;89.56
16255;BME280;8235;52.198;9.904;2024-01-10T03:25:34;102537.13;;;-8.27;89.50
16255;BME280;8235;52.198;9.904;2024-01-10T03:28:01;102534.47;;;-8.28;89.53
16255;BME280;8235;52.198;9.904;2024-01-10T03:30:28;102527.59;;;-8.28;89.26
16255;BME280;8235;52.198;9.904;2024-01-10T03:32:54;102526.56;;;-8.31;89.75
16255;BME280;8235;52.198;9.904;2024-01-10T03:35:22;102542.28;;;-8.27;89.79
16255;BME280;8235;52.198;9.904;2024-01-10T03:37:48;102542.22;;;-8.28;89.29
16255;BME280;8235;52.198;9.904;2024-01-10T03:40:15;102542.97;;;-8.31;89.31
16255;BME280;8235;52.198;9.904;2024-01-10T03:42:41;102540.34;;;-8.32;89.43
16255;BME280;8235;52.198;9.904;2024-01-10T03:45:08;102538.66;;;-8.32;89.68
16255;BME280;8235;52.198;9.904;2024-01-10T03:47:35;102538.56;;;-8.33;89.76
16255;BME280;8235;52.198;9.904;2024-01-10T03:50:02;102535.19;;;-8.32;90.16
16255;BME280;8235;52.198;9.904;2024-01-10T03:52:30;102537.75;;;-8.32;89.83
16255;BME280;8235;52.198;9.904;2024-01-10T03:54:57;102532.44;;;-8.35;89.81
16255;BME280;8235;52.198;9.904;2024-01-10T03:57:23;102533.28;;;-8.36;89.50
16255;BME280;8235;52.198;9.904;2024-01-10T03:59:49;102526.47;;;-8.34;90.16
16255;BME280;8235;52.198;9.904;2024-01-10T04:02:16;102523.06;;;-8.33;89.92
16255;BME280;8235;52.198;9.904;2024-01-10T04:04:42;102525.59;;;-8.35;89.93
16255;BME280;8235;52.198;9.904;2024-01-10T04:07:09;102524.69;;;-8.35;89.68
16255;BME280;8235;52.198;9.904;2024-01-10T04:09:37;102516.00;;;-8.37;89.64
16255;BME280;8235;52.198;9.904;2024-01-10T04:12:04;102516.81;;;-8.38;89.93
16255;BME280;8235;52.198;9.904;2024-01-10T04:14:30;102514.09;;;-8.42;90.52
16255;BME280;8235;52.198;9.904;2024-01-10T04:16:57;102518.41;;;-8.42;89.87
16255;BME280;8235;52.198;9.904;2024-01-10T04:19:24;102527.84;;;-8.43;90.00
16255;BME280;8235;52.198;9.904;2024-01-10T04:21:50;102525.22;;;-8.44;90.12
16255;BME280;8235;52.198;9.904;2024-01-10T04:24:17;102530.38;;;-8.44;90.57
16255;BME280;8235;52.198;9.904;2024-01-10T04:26:45;102526.03;;;-8.45;90.68
16255;BME280;8235;52.198;9.904;2024-01-10T04:29:11;102527.72;;;-8.46;90.10
16255;BME280;8235;52.198;9.904;2024-01-10T04:31:38;102541.53;;;-8.45;90.50
16255;BME280;8235;52.198;9.904;2024-01-10T04:34:04;102525.94;;;-8.47;90.79
16255;BME280;8235;52.198;9.904;2024-01-10T04:36:31;102519.97;;;-8.46;90.81
16255;BME280;8235;52.198;9.904;2024-01-10T04:38:57;102520.78;;;-8.47;90.13
16255;BME280;8235;52.198;9.904;2024-01-10T04:41:24;102519.00;;;-8.48;90.50
16255;BME280;8235;52.198;9.904;2024-01-10T04:43:52;102528.47;;;-8.48;90.33
16255;BME280;8235;52.198;9.904;2024-01-10T04:46:19;102527.59;;;-8.49;90.47
16255;BME280;8235;52.198;9.904;2024-01-10T04:48:45;102524.03;;;-8.51;90.25
16255;BME280;8235;52.198;9.904;2024-01-10T04:51:11;102520.63;;;-8.50;90.74
16255;BME280;8235;52.198;9.904;2024-01-10T04:53:39;102519.69;;;-8.52;90.53
16255;BME280;8235;52.198;9.904;2024-01-10T04:56:06;102517.09;;;-8.52;90.26
16255;BME280;8235;52.198;9.904;2024-01-10T04:58:32;102508.47;;;-8.52;90.69
16255;BME280;8235;52.198;9.904;2024-01-10T05:01:00;102510.97;;;-8.54;89.97
16255;BME280;8235;52.198;9.904;2024-01-10T05:03:27;102513.56;;;-8.54;90.85
16255;BME280;8235;52.198;9.904;2024-01-10T05:05:53;102511.88;;;-8.53;90.11
16255;BME280;8235;52.198;9.904;2024-01-10T05:08:20;102508.34;;;-8.55;90.92
16255;BME280;8235;52.198;9.904;2024-01-10T05:10:46;102512.63;;;-8.56;90.63
16255;BME280;8235;52.198;9.904;2024-01-10T05:13:13;102512.63;;;-8.56;90.44
16255;BME280;8235;52.198;9.904;2024-01-10T05:15:39;102514.25;;;-8.58;90.73
16255;BME280;8235;52.198;9.904;2024-01-10T05:18:07;102510.78;;;-8.58;90.21
16255;BME280;8235;52.198;9.904;2024-01-10T05:20:34;102505.56;;;-8.60;89.96
16255;BME280;8235;52.198;9.904;2024-01-10T05:23:00;102508.16;;;-8.60;90.14
16255;BME280;8235;52.198;9.904;2024-01-10T05:25:27;102505.50;;;-8.61;89.84
16255;BME280;8235;52.198;9.904;2024-01-10T05:27:54;102503.72;;;-8.62;90.19
16255;BME280;8235;52.198;9.904;2024-01-10T05:30:21;102501.97;;;-8.63;89.85
16255;BME280;8235;52.198;9.904;2024-01-10T05:32:47;102496.81;;;-8.63;89.94
16255;BME280;8235;52.198;9.904;2024-01-10T05:35:15;102498.50;;;-8.64;90.06
16255;BME280;8235;52.198;9.904;2024-01-10T05:37:42;102503.59;;;-8.65;90.42
16255;BME280;8235;52.198;9.904;2024-01-10T05:40:09;102499.31;;;-8.65;90.13
16255;BME280;8235;52.198;9.904;2024-01-10T05:42:36;102499.25;;;-8.66;89.97
16255;BME280;8235;52.198;9.904;2024-01-10T05:45:03;102499.16;;;-8.68;90.50
16255;BME280;8235;52.198;9.904;2024-01-10T05:47:31;102490.41;;;-8.71;90.12
16255;BME280;8235;52.198;9.904;2024-01-10T05:49:57;102488.69;;;-8.71;90.15
16255;BME280;8235;52.198;9.904;2024-01-10T05:52:25;102489.50;;;-8.72;90.11
16255;BME280;8235;52.198;9.904;2024-01-10T05:54:51;102492.03;;;-8.73;90.31
16255;BME280;8235;52.198;9.904;2024-01-10T05:57:18;102492.78;;;-8.76;90.00
16255;BME280;8235;52.198;9.904;2024-01-10T05:59:46;102490.97;;;-8.79;90.73
16255;BME280;8235;52.198;9.904;2024-01-10T06:02:13;102485.72;;;-8.80;90.35
16255;BME280;8235;52.198;9.904;2024-01-10T06:04:41;102492.59;;;-8.81;90.81
16255;BME280;8235;52.198;9.904;2024-01-10T06:07:08;102492.53;;;-8.82;90.20
16255;BME280;8235;52.198;9.904;2024-01-10T06:09:36;102482.94;;;-8.85;90.39
16255;BME280;8235;52.198;9.904;2024-01-10T06:12:02;102493.13;;;-8.88;90.72
16255;BME280;8235;52.198;9.904;2024-01-10T06:14:29;102492.22;;;-8.88;90.67
16255;BME280;8235;52.198;9.904;2024-01-10T06:16:56;102493.84;;;-8.90;90.89
16255;BME280;8235;52.198;9.904;2024-01-10T06:19:24;102489.50;;;-8.91;91.04
16255;BME280;8235;52.198;9.904;2024-01-10T06:21:51;102498.06;;;-8.92;90.88
16255;BME280;8235;52.198;9.904;2024-01-10T06:24:18;102498.88;;;-8.93;91.18
16255;BME280;8235;52.198;9.904;2024-01-10T06:26:46;102492.91;;;-8.92;91.10
16255;BME280;8235;52.198;9.904;2024-01-10T06:29:12;102488.69;;;-8.90;91.19
16255;BME280;8235;52.198;9.904;2024-01-10T06:31:38;102491.34;;;-8.89;91.41
16255;BME280;8235;52.198;9.904;2024-01-10T06:34:05;102493.19;;;-8.86;92.29
16255;BME280;8235;52.198;9.904;2024-01-10T06:36:31;102490.69;;;-8.85;91.60
16255;BME280;8235;52.198;9.904;2024-01-10T06:38:58;102483.00;;;-8.83;91.78
16255;BME280;8235;52.198;9.904;2024-01-10T06:41:24;102483.06;;;-8.82;92.01
16255;BME280;8235;52.198;9.904;2024-01-10T06:43:52;102481.38;;;-8.81;91.59
16255;BME280;8235;52.198;9.904;2024-01-10T06:46:19;102494.44;;;-8.78;92.05
16255;BME280;8235;52.198;9.904;2024-01-10T06:48:45;102486.78;;;-8.75;91.67
16255;BME280;8235;52.198;9.904;2024-01-10T06:51:12;102488.50;;;-8.76;91.77
16255;BME280;8235;52.198;9.904;2024-01-10T06:53:39;102490.19;;;-8.76;91.70
16255;BME280;8235;52.198;9.904;2024-01-10T06:56:06;102503.25;;;-8.73;92.02
16255;BME280;8235;52.198;9.904;2024-01-10T06:58:34;102489.66;;;-8.69;91.88
16255;BME280;8235;52.198;9.904;2024-01-10T07:01:02;102491.34;;;-8.69;91.95
16255;BME280;8235;52.198;9.904;2024-01-10T07:03:30;102498.22;;;-8.70;91.69
16255;BME280;8235;52.198;9.904;2024-01-10T07:05:56;102491.22;;;-8.72;91.30
16255;BME280;8235;52.198;9.904;2024-01-10T07:08:24;102492.84;;;-8.74;91.31
16255;BME280;8235;52.198;9.904;2024-01-10T07:10:51;102487.53;;;-8.78;91.05
16255;BME280;8235;52.198;9.904;2024-01-10T07:13:17;102489.19;;;-8.80;91.95
16255;BME280;8235;52.198;9.904;2024-01-10T07:15:45;102491.63;;;-8.83;91.82
16255;BME280;8235;52.198;9.904;2024-01-10T07:18:13;102495.97;;;-8.82;91.63
16255;BME280;8235;52.198;9.904;2024-01-10T07:20:39;102496.88;;;-8.81;91.50
16255;BME280;8235;52.198;9.904;2024-01-10T07:23:06;102502.03;;;-8.81;91.65
16255;BME280;8235;52.198;9.904;2024-01-10T07:25:32;102491.63;;;-8.83;91.62
16255;BME280;8235;52.198;9.904;2024-01-10T07:27:59;102503.00;;;-8.79;91.86
16255;BME280;8235;52.198;9.904;2024-01-10T07:30:26;102503.09;;;-8.76;92.58
16255;BME280;8235;52.198;9.904;2024-01-10T07:32:52;102508.34;;;-8.74;92.17
16255;BME280;8235;52.198;9.904;2024-01-10T07:35:20;102513.72;;;-8.70;92.37
16255;BME280;8235;52.198;9.904;2024-01-10T07:37:47;102514.81;;;-8.65;91.97
16255;BME280;8235;52.198;9.904;2024-01-10T07:40:13;102507.13;;;-8.63;91.42
16255;BME280;8235;52.198;9.904;2024-01-10T07:42:40;102505.44;;;-8.63;91.36
16255;BME280;8235;52.198;9.904;2024-01-10T07:45:07;102514.94;;;-8.62;91.08
16255;BME280;8235;52.198;9.904;2024-01-10T07:47:35;102520.13;;;-8.62;90.53
16255;BME280;8235;52.198;9.904;2024-01-10T07:50:03;102522.63;;;-8.63;91.10
16255;BME280;8235;52.198;9.904;2024-01-10T07:52:31;102524.31;;;-8.64;90.74
16255;BME280;8235;52.198;9.904;2024-01-10T07:54:58;102517.31;;;-8.66;90.58
16255;BME280;8235;52.198;9.904;2024-01-10T07:57:25;102522.63;;;-8.63;90.95
16255;BME280;8235;52.198;9.904;2024-01-10T07:59:52;102522.69;;;-8.62;90.56
16255;BME280;8235;52.198;9.904;2024-01-10T08:02:18;102530.44;;;-8.62;90.97
16255;BME280;8235;52.198;9.904;2024-01-10T08:04:45;102527.16;;;-8.58;90.42
16255;BME280;8235;52.198;9.904;2024-01-10T08:07:11;102520.22;;;-8.59;90.43
16255;BME280;8235;52.198;9.904;2024-01-10T08:09:39;102519.31;;;-8.61;90.17
16255;BME280;8235;52.198;9.904;2024-01-10T08:12:06;102518.50;;;-8.60;90.42
16255;BME280;8235;52.198;9.904;2024-01-10T08:14:33;102510.84;;;-8.57;90.09
16255;BME280;8235;52.198;9.904;2024-01-10T08:16:59;102522.88;;;-8.57;89.86
16255;BME280;8235;52.198;9.904;2024-01-10T08:19:26;102523.75;;;-8.57;90.40
16255;BME280;8235;52.198;9.904;2024-01-10T08:21:53;102515.84;;;-8.61;90.09
16255;BME280;8235;52.198;9.904;2024-01-10T08:24:19;102518.34;;;-8.63;90.86
16255;BME280;8235;52.198;9.904;2024-01-10T08:26:47;102508.75;;;-8.65;90.58
16255;BME280;8235;52.198;9.904;2024-01-10T08:29:17;102509.84;;;-8.60;90.71
16255;BME280;8235;52.198;9.904;2024-01-10T08:31:43;102504.78;;;-8.57;90.51
16255;BME280;8235;52.198;9.904;2024-01-10T08:34:10;102517.78;;;-8.56;90.81
16255;BME280;8235;52.198;9.904;2024-01-10T08:36:37;102519.47;;;-8.56;90.80
16255;BME280;8235;52.198;9.904;2024-01-10T08:39:03;102515.19;;;-8.56;90.81
16255;BME280;8235;52.198;9.904;2024-01-10T08:41:31;102506.78;;;-8.52;90.96
16255;BME280;8235;52.198;9.904;2024-01-10T08:43:59;102515.84;;;-8.41;90.55
16255;BME280;8235;52.198;9.904;2024-01-10T08:46:26;102519.25;;;-8.42;90.23
16255;BME280;8235;52.198;9.904;2024-01-10T08:48:52;102513.28;;;-8.41;90.89
16255;BME280;8235;52.198;9.904;2024-01-10T08:51:19;102514.22;;;-8.38;90.88
16255;BME280;8235;52.198;9.904;2024-01-10T08:53:45;102515.03;;;-8.39;90.43
16255;BME280;8235;52.198;9.904;2024-01-10T08:56:12;102518.81;;;-8.31;90.66
16255;BME280;8235;52.198;9.904;2024-01-10T08:58:38;102513.13;;;-8.24;90.51
16255;BME280;8235;52.198;9.904;2024-01-10T09:01:06;102514.81;;;-8.25;90.12
16255;BME280;8235;52.198;9.904;2024-01-10T09:03:33;102510.56;;;-8.23;90.40
16255;BME280;8235;52.198;9.904;2024-01-10T09:05:59;102503.91;;;-8.18;89.87
16255;BME280;8235;52.198;9.904;2024-01-10T09:08:28;102509.13;;;-8.16;89.76
16255;BME280;8235;52.198;9.904;2024-01-10T09:10:55;102513.63;;;-8.12;90.44
16255;BME280;8235;52.198;9.904;2024-01-10T09:13:21;102504.38;;;-8.07;90.23
16255;BME280;8235;52.198;9.904;2024-01-10T09:15:48;102515.75;;;-8.02;90.12
16255;BME280;8235;52.198;9.904;2024-01-10T09:18:16;102510.72;;;-7.99;89.50
16255;BME280;8235;52.198;9.904;2024-01-10T09:20:42;102515.28;;;-7.93;89.53
16255;BME280;8235;52.198;9.904;2024-01-10T09:23:09;102508.28;;;-7.96;89.59
16255;BME280;8235;52.198;9.904;2024-01-10T09:25:36;102510.16;;;-7.92;90.03
16255;BME280;8235;52.198;9.904;2024-01-10T09:28:04;102509.50;;;-7.86;89.84
16255;BME280;8235;52.198;9.904;2024-01-10T09:30:30;102498.63;;;-7.79;89.88
16255;BME280;8235;52.198;9.904;2024-01-10T09:32:57;102507.44;;;-7.74;89.78
16255;BME280;8235;52.198;9.904;2024-01-10T09:35:25;102508.50;;;-7.69;89.01
16255;BME280;8235;52.198;9.904;2024-01-10T09:37:52;102498.47;;;-7.61;88.22
16255;BME280;8235;52.198;9.904;2024-01-10T09:40:19;102509.69;;;-7.61;87.69
16255;BME280;8235;52.198;9.904;2024-01-10T09:42:48;102495.06;;;-7.60;87.37
16255;BME280;8235;52.198;9.904;2024-01-10T09:45:16;102502.13;;;-7.56;88.07
16255;BME280;8235;52.198;9.904;2024-01-10T09:47:46;102501.53;;;-7.49;88.38
16255;BME280;8235;52.198;9.904;2024-01-10T09:50:14;102499.25;;;-7.42;88.05
16255;BME280;8235;52.198;9.904;2024-01-10T09:52:48;102504.69;;;-7.36;87.03
16255;BME280;8235;52.198;9.904;2024-01-10T09:55:17;102503.97;;;-7.31;86.79
16255;BME280;8235;52.198;9.904;2024-01-10T09:57:44;102489.63;;;-7.23;87.20
16255;BME280;8235;52.198;9.904;2024-01-10T10:00:11;102502.63;;;-7.22;87.21
16255;BME280;8235;52.198;9.904;2024-01-10T10:02:41;102495.81;;;-7.20;86.71
16255;BME280;8235;52.198;9.904;2024-01-10T10:05:09;102495.94;;;-7.15;86.39
16255;BME280;8235;52.198;9.904;2024-01-10T10:07:48;102503.78;;;-7.14;86.63
16255;BME280;8235;52.198;9.904;2024-01-10T10:10:15;102496.97;;;-7.12;86.29
16255;BME280;8235;52.198;9.904;2024-01-10T10:12:42;102487.41;;;-7.13;85.27
16255;BME280;8235;52.198;9.904;2024-01-10T10:15:11;102479.97;;;-7.05;85.98
16255;BME280;8235;52.198;9.904;2024-01-10T10:17:37;102483.75;;;-6.95;84.94
16255;BME280;8235;52.198;9.904;2024-01-10T10:20:11;102494.19;;;-6.94;85.02
16255;BME280;8235;52.198;9.904;2024-01-10T10:22:38;102480.63;;;-6.87;85.58
16255;BME280;8235;52.198;9.904;2024-01-10T10:25:06;102478.94;;;-6.86;85.18
16255;BME280;8235;52.198;9.904;2024-01-10T10:27:36;102471.47;;;-6.77;85.21
16255;BME280;8235;52.198;9.904;2024-01-10T10:30:04;102470.88;;;-6.70;85.37
16255;BME280;8235;52.198;9.904;2024-01-10T10:32:34;102468.53;;;-6.64;84.87
16255;BME280;8235;52.198;9.904;2024-01-10T10:35:01;102463.47;;;-6.59;85.16
16255;BME280;8235;52.198;9.904;2024-01-10T10:37:28;102474.13;;;-6.52;84.77
16255;BME280;8235;52.198;9.904;2024-01-10T10:39:54;102473.97;;;-6.56;83.88
16255;BME280;8235;52.198;9.904;2024-01-10T10:42:23;102462.81;;;-6.54;83.74
16255;BME280;8235;52.198;9.904;2024-01-10T10:44:51;102463.59;;;-6.56;83.49
16255;BME280;8235;52.198;9.904;2024-01-10T10:47:21;102465.47;;;-6.52;82.96
16255;BME280;8235;52.198;9.904;2024-01-10T10:49:53;102462.94;;;-6.51;83.20
16255;BME280;8235;52.198;9.904;2024-01-10T10:52:21;102463.03;;;-6.48;82.59
16255;BME280;8235;52.198;9.904;2024-01-10T10:54:49;102452.72;;;-6.46;83.17
16255;BME280;8235;52.198;9.904;2024-01-10T10:57:20;102456.97;;;-6.48;82.34
16255;BME280;8235;52.198;9.904;2024-01-10T10:59:49;102453.44;;;-6.50;82.70
16255;BME280;8235;52.198;9.904;2024-01-10T11:02:20;102463.03;;;-6.48;83.00
16255;BME280;8235;52.198;9.904;2024-01-10T11:04:48;102454.63;;;-6.41;83.49
16255;BME280;8235;52.198;9.904;2024-01-10T11:07:15;102460.16;;;-6.32;83.73
16255;BME280;8235;52.198;9.904;2024-01-10T11:09:42;102451.72;;;-6.24;83.49
16255;BME280;8235;52.198;9.904;2024-01-10T11:12:23;102456.91;;;-6.24;82.85
16255;BME280;8235;52.198;9.904;2024-01-10T11:15:10;102459.72;;;-6.18;83.38
16255;BME280;8235;52.198;9.904;2024-01-10T11:18:02;102451.22;;;-6.14;83.05
16255;BME280;8235;52.198;9.904;2024-01-10T11:20:44;102446.00;;;-6.16;82.62
16255;BME280;8235;52.198;9.904;2024-01-10T11:23:34;102454.88;;;-6.08;82.67
16255;BME280;8235;52.198;9.904;2024-01-10T11:26:04;102449.09;;;-6.01;82.15
16255;BME280;8235;52.198;9.904;2024-01-10T11:28:30;102445.75;;;-5.97;82.15
16255;BME280;8235;52.198;9.904;2024-01-10T11:30:59;102439.75;;;-5.96;82.36
16255;BME280;8235;52.198;9.904;2024-01-10T11:33:30;102440.75;;;-5.90;82.20
16255;BME280;8235;52.198;9.904;2024-01-10T11:36:07;102436.56;;;-5.85;82.79
16255;BME280;8235;52.198;9.904;2024-01-10T11:38:40;102445.44;;;-5.79;82.24
16255;BME280;8235;52.198;9.904;2024-01-10T11:41:10;102436.00;;;-5.77;81.73
16255;BME280;8235;52.198;9.904;2024-01-10T11:43:37;102439.31;;;-5.81;80.75
16255;BME280;8235;52.198;9.904;2024-01-10T11:46:05;102430.69;;;-5.80;80.79
16255;BME280;8235;52.198;9.904;2024-01-10T11:48:32;102446.38;;;-5.77;80.92
16255;BME280;8235;52.198;9.904;2024-01-10T11:50:59;102443.06;;;-5.71;81.05
16255;BME280;8235;52.198;9.904;2024-01-10T11:53:43;102444.94;;;-5.67;81.05
16255;BME280;8235;52.198;9.904;2024-01-10T11:56:12;102440.53;;;-5.70;80.62
16255;BME280;8235;52.198;9.904;2024-01-10T11:59:00;102446.66;;;-5.68;80.53
16255;BME280;8235;52.198;9.904;2024-01-10T12:01:29;102447.69;;;-5.63;80.73
16255;BME280;8235;52.198;9.904;2024-01-10T12:03:55;102443.41;;;-5.61;80.89
16255;BME280;8235;52.198;9.904;2024-01-10T12:06:22;102448.84;;;-5.53;81.04
16255;BME280;8235;52.198;9.904;2024-01-10T12:08:50;102445.56;;;-5.47;80.09
16255;BME280;8235;52.198;9.904;2024-01-10T12:11:17;102440.38;;;-5.47;79.99
16255;BME280;8235;52.198;9.904;2024-01-10T12:13:43;102438.91;;;-5.39;80.38
16255;BME280;8235;52.198;9.904;2024-01-10T12:16:11;102438.19;;;-5.34;79.61
16255;BME280;8235;52.198;9.904;2024-01-10T12:18:40;102428.50;;;-5.39;79.54
16255;BME280;8235;52.198;9.904;2024-01-10T12:21:07;102440.69;;;-5.37;79.37
16255;BME280;8235;52.198;9.904;2024-01-10T12:23:35;102428.63;;;-5.35;79.51
16255;BME280;8235;52.198;9.904;2024-01-10T12:26:04;102429.38;;;-5.39;79.44
16255;BME280;8235;52.198;9.904;2024-01-10T12:28:33;102426.81;;;-5.37;79.42
16255;BME280;8235;52.198;9.904;2024-01-10T12:30:59;102424.22;;;-5.37;79.21
16255;BME280;8235;52.198;9.904;2024-01-10T12:33:26;102419.91;;;-5.37;79.35
16255;BME280;8235;52.198;9.904;2024-01-10T12:36:06;102420.13;;;-5.29;79.89
16255;BME280;8235;52.198;9.904;2024-01-10T12:38:33;102424.75;;;-5.19;79.41
16255;BME280;8235;52.198;9.904;2024-01-10T12:40:59;102423.13;;;-5.15;79.00
16255;BME280;8235;52.198;9.904;2024-01-10T12:43:26;102413.72;;;-5.12;78.96
16255;BME280;8235;52.198;9.904;2024-01-10T12:46:02;102420.03;;;-5.04;78.72
16255;BME280;8235;52.198;9.904;2024-01-10T12:48:30;102420.09;;;-5.01;78.25
16255;BME280;8235;52.198;9.904;2024-01-10T12:50:57;102417.69;;;-4.95;77.23
16255;BME280;8235;52.198;9.904;2024-01-10T12:53:27;102408.25;;;-4.91;76.89
16255;BME280;8235;52.198;9.904;2024-01-10T12:55:54;102412.75;;;-4.85;76.19
16255;BME280;8235;52.198;9.904;2024-01-10T12:58:21;102411.81;;;-4.87;76.50
16255;BME280;8235;52.198;9.904;2024-01-10T13:00:47;102410.16;;;-4.85;76.53
16255;BME280;8235;52.198;9.904;2024-01-10T13:03:15;102406.81;;;-4.80;75.72